createdAt,value
2018-03-28T00:00:12.993Z,11.17
2018-03-28T00:00:53.486Z,11.09
2018-03-28T00:01:33.951Z,11.22
2018-03-28T00:02:14.427Z,11.21
2018-03-28T00:02:54.900Z,11.18
2018-03-28T00:03:35.395Z,11.07
2018-03-28T00:04:15.863Z,11.1
2018-03-28T00:04:56.354Z,11.1
2018-03-28T00:05:36.849Z,11.18
2018-03-28T00:06:17.358Z,11.14
2018-03-28T00:06:57.847Z,11.1
2018-03-28T00:07:38.349Z,11.1
2018-03-28T00:08:18.832Z,11.06
2018-03-28T00:08:59.375Z,11
2018-03-28T00:09:39.824Z,11.07
2018-03-28T00:10:20.298Z,11.06
2018-03-28T00:11:00.813Z,11.14
2018-03-28T00:11:41.322Z,11.11
2018-03-28T00:12:21.812Z,11.07
2018-03-28T00:13:02.305Z,11
2018-03-28T00:13:42.791Z,11.02
2018-03-28T00:14:23.281Z,10.97
2018-03-28T00:15:03.772Z,11
2018-03-28T00:15:44.274Z,11
2018-03-28T00:16:24.820Z,10.97
2018-03-28T00:17:05.332Z,10.96
2018-03-28T00:17:45.774Z,10.99
2018-03-28T00:18:26.315Z,11.02
2018-03-28T00:19:06.829Z,10.99
2018-03-28T00:19:47.349Z,11.06
2018-03-28T00:20:27.812Z,11.11
2018-03-28T00:21:08.319Z,11.09
2018-03-28T00:21:48.811Z,10.96
2018-03-28T00:22:29.295Z,11.03
2018-03-28T00:23:09.859Z,11.03
2018-03-28T00:23:50.365Z,10.94
2018-03-28T00:24:30.853Z,11
2018-03-28T00:25:11.314Z,11.06
2018-03-28T00:25:51.821Z,11
2018-03-28T00:26:32.314Z,11.07
2018-03-28T00:27:12.795Z,11.14
2018-03-28T00:27:53.347Z,11.18
2018-03-28T00:28:33.844Z,11.18
2018-03-28T00:29:14.288Z,11.07
2018-03-28T00:29:54.844Z,11.02
2018-03-28T00:30:35.306Z,11.02
2018-03-28T00:31:15.825Z,11.02
2018-03-28T00:31:56.274Z,10.97
2018-03-28T00:32:36.799Z,11.09
2018-03-28T00:33:17.278Z,11.09
2018-03-28T00:33:57.773Z,11.11
2018-03-28T00:34:38.336Z,11.04
2018-03-28T00:35:18.811Z,10.99
2018-03-28T00:35:59.277Z,10.97
2018-03-28T00:36:39.802Z,11
2018-03-28T00:37:20.253Z,11.09
2018-03-28T00:38:00.741Z,11.09
2018-03-28T00:38:41.234Z,10.96
2018-03-28T00:39:21.748Z,10.91
2018-03-28T00:40:02.265Z,10.88
2018-03-28T00:40:42.754Z,10.84
2018-03-28T00:41:23.235Z,10.89
2018-03-28T00:42:03.706Z,10.82
2018-03-28T00:42:44.198Z,10.85
2018-03-28T00:43:24.676Z,10.84
2018-03-28T00:44:05.194Z,10.92
2018-03-28T00:44:45.660Z,10.92
2018-03-28T00:45:26.161Z,10.97
2018-03-28T00:46:06.659Z,10.92
2018-03-28T00:46:47.095Z,10.94
2018-03-28T00:47:27.603Z,11
2018-03-28T00:48:08.044Z,11.09
2018-03-28T00:48:48.548Z,11.03
2018-03-28T00:49:29.070Z,10.97
2018-03-28T00:50:09.552Z,10.92
2018-03-28T00:50:50.050Z,10.96
2018-03-28T00:51:30.560Z,10.89
2018-03-28T00:52:11.016Z,11.02
2018-03-28T00:52:51.522Z,10.96
2018-03-28T00:53:32.008Z,10.97
2018-03-28T00:54:12.488Z,10.96
2018-03-28T00:54:52.961Z,10.96
2018-03-28T00:55:33.524Z,10.99
2018-03-28T00:56:14.037Z,10.92
2018-03-28T00:56:54.496Z,10.91
2018-03-28T00:57:35.011Z,10.96
2018-03-28T00:58:15.530Z,10.97
2018-03-28T00:58:56.036Z,10.94
2018-03-28T00:59:36.470Z,10.94
2018-03-28T01:00:16.974Z,11.04
2018-03-28T01:00:57.411Z,11.07
2018-03-28T01:01:37.920Z,11.06
2018-03-28T01:02:18.409Z,10.94
2018-03-28T01:02:58.896Z,11.07
2018-03-28T01:03:39.447Z,11.07
2018-03-28T01:04:19.906Z,11.02
2018-03-28T01:05:00.405Z,10.96
2018-03-28T01:05:40.910Z,10.96
2018-03-28T01:06:21.382Z,10.99
2018-03-28T01:07:01.867Z,10.97
2018-03-28T01:07:42.305Z,10.97
2018-03-28T01:08:22.800Z,11.04
2018-03-28T01:09:03.294Z,11.07
2018-03-28T01:09:43.804Z,11.04
2018-03-28T01:10:24.322Z,11.17
2018-03-28T01:11:04.878Z,11.17
2018-03-28T01:11:45.330Z,11.09
2018-03-28T01:12:25.845Z,11.04
2018-03-28T01:13:06.320Z,11.03
2018-03-28T01:13:46.803Z,11.14
2018-03-28T01:14:27.366Z,11.06
2018-03-28T01:15:07.821Z,11.07
2018-03-28T01:15:48.299Z,11.02
2018-03-28T01:16:28.822Z,10.94
2018-03-28T01:17:09.283Z,11.07
2018-03-28T01:17:49.785Z,11.1
2018-03-28T01:18:30.262Z,11.04
2018-03-28T01:19:10.764Z,11.03
2018-03-28T01:19:51.276Z,11.06
2018-03-28T01:20:31.795Z,11.07
2018-03-28T01:21:12.282Z,11.03
2018-03-28T01:21:52.718Z,11
2018-03-28T01:22:33.239Z,10.92
2018-03-28T01:23:13.820Z,10.94
2018-03-28T01:23:54.216Z,11
2018-03-28T01:24:34.742Z,11.03
2018-03-28T01:25:15.224Z,11.04
2018-03-28T01:25:55.698Z,11.03
2018-03-28T01:26:36.199Z,11.03
2018-03-28T01:27:16.710Z,11.06
2018-03-28T01:27:57.196Z,10.96
2018-03-28T01:28:37.679Z,11.07
2018-03-28T01:29:18.186Z,11.06
2018-03-28T01:29:58.642Z,11.06
2018-03-28T01:30:39.157Z,11
2018-03-28T01:31:19.610Z,11.11
2018-03-28T01:32:00.132Z,11.14
2018-03-28T01:32:40.663Z,11.14
2018-03-28T01:33:21.092Z,11.17
2018-03-28T01:34:01.596Z,10.99
2018-03-28T01:34:42.066Z,11.07
2018-03-28T01:35:22.564Z,10.99
2018-03-28T01:36:03.046Z,11.04
2018-03-28T01:36:43.522Z,10.96
2018-03-28T01:37:23.992Z,11.09
2018-03-28T01:38:04.476Z,10.89
2018-03-28T01:38:44.985Z,10.85
2018-03-28T01:39:25.449Z,10.92
2018-03-28T01:40:05.957Z,10.94
2018-03-28T01:40:46.425Z,11.06
2018-03-28T01:41:26.958Z,11.04
2018-03-28T01:42:07.453Z,11.17
2018-03-28T01:42:47.954Z,11.21
2018-03-28T01:43:28.456Z,11.28
2018-03-28T01:44:09.009Z,11.32
2018-03-28T01:44:49.474Z,11.32
2018-03-28T01:45:29.954Z,11.32
2018-03-28T01:46:10.484Z,11.29
2018-03-28T01:46:50.940Z,11.33
2018-03-28T01:47:31.452Z,11.28
2018-03-28T01:48:11.916Z,11.33
2018-03-28T01:48:52.394Z,11.29
2018-03-28T01:49:32.902Z,11.21
2018-03-28T01:50:13.408Z,11.22
2018-03-28T01:50:53.839Z,11.21
2018-03-28T01:51:34.365Z,11.24
2018-03-28T01:52:14.840Z,11.19
2018-03-28T01:52:55.288Z,11.21
2018-03-28T01:53:35.824Z,11.19
2018-03-28T01:54:16.290Z,11.18
2018-03-28T01:54:56.721Z,11.19
2018-03-28T01:55:37.231Z,11.22
2018-03-28T01:56:17.712Z,11.14
2018-03-28T01:56:58.240Z,11.22
2018-03-28T01:57:38.715Z,11.19
2018-03-28T01:58:19.254Z,11.15
2018-03-28T01:58:59.686Z,11.17
2018-03-28T01:59:40.156Z,11.09
2018-03-28T02:00:20.679Z,11.14
2018-03-28T02:01:01.165Z,11.15
2018-03-28T02:01:41.821Z,11.07
2018-03-28T02:02:22.285Z,11.09
2018-03-28T02:03:02.774Z,11.09
2018-03-28T02:03:43.332Z,11.14
2018-03-28T02:04:23.778Z,11.11
2018-03-28T02:05:04.343Z,11.14
2018-03-28T02:05:44.819Z,11.18
2018-03-28T02:06:25.296Z,11.19
2018-03-28T02:07:05.766Z,11.06
2018-03-28T02:07:46.373Z,10.99
2018-03-28T02:08:26.802Z,11.07
2018-03-28T02:09:07.276Z,11.03
2018-03-28T02:09:47.752Z,11.11
2018-03-28T02:10:28.263Z,11.09
2018-03-28T02:11:08.723Z,11
2018-03-28T02:11:49.213Z,11.11
2018-03-28T02:12:29.750Z,11.15
2018-03-28T02:13:10.208Z,11.14
2018-03-28T02:13:50.672Z,11.14
2018-03-28T02:14:31.182Z,11.17
2018-03-28T02:15:11.609Z,11.15
2018-03-28T02:15:52.145Z,11.09
2018-03-28T02:16:32.583Z,11.19
2018-03-28T02:17:13.073Z,11.21
2018-03-28T02:17:53.573Z,11.17
2018-03-28T02:18:34.094Z,11.22
2018-03-28T02:19:14.587Z,11.32
2018-03-28T02:19:55.090Z,11.18
2018-03-28T02:20:35.554Z,11.22
2018-03-28T02:21:16.052Z,11.32
2018-03-28T02:21:56.499Z,11.32
2018-03-28T02:22:36.990Z,11.32
2018-03-28T02:23:17.498Z,11.27
2018-03-28T02:23:57.986Z,11.27
2018-03-28T02:24:38.492Z,11.33
2018-03-28T02:25:18.968Z,11.18
2018-03-28T02:25:59.435Z,11.18
2018-03-28T02:26:39.929Z,11.17
2018-03-28T02:27:20.423Z,11.21
2018-03-28T02:28:00.933Z,11.15
2018-03-28T02:28:41.410Z,11.19
2018-03-28T02:29:21.971Z,11.15
2018-03-28T02:30:02.409Z,11.07
2018-03-28T02:32:02.424Z,11.28
2018-03-28T02:32:42.942Z,11.21
2018-03-28T02:33:23.456Z,11.18
2018-03-28T02:34:03.963Z,11.22
2018-03-28T02:34:44.504Z,11.21
2018-03-28T02:35:25.024Z,11.14
2018-03-28T02:36:05.533Z,11.06
2018-03-28T02:36:46.051Z,11.09
2018-03-28T02:37:26.570Z,11.1
2018-03-28T02:38:07.088Z,11.1
2018-03-28T02:38:47.586Z,11.22
2018-03-28T02:39:28.098Z,11.18
2018-03-28T02:40:08.606Z,11.21
2018-03-28T02:40:49.106Z,11.21
2018-03-28T02:41:29.637Z,11.19
2018-03-28T02:42:10.154Z,11.15
2018-03-28T02:42:50.661Z,11.19
2018-03-28T02:43:31.176Z,11.25
2018-03-28T02:44:11.705Z,11.32
2018-03-28T02:44:52.224Z,11.27
2018-03-28T02:45:32.724Z,11.19
2018-03-28T02:46:13.258Z,11.18
2018-03-28T02:46:53.758Z,11.24
2018-03-28T02:47:34.309Z,11.28
2018-03-28T02:48:14.819Z,11.36
2018-03-28T02:48:55.340Z,11.24
2018-03-28T02:49:35.859Z,11.18
2018-03-28T02:50:16.378Z,11.18
2018-03-28T02:50:56.874Z,11.29
2018-03-28T02:51:37.386Z,11.25
2018-03-28T02:52:17.907Z,11.36
2018-03-28T02:52:58.424Z,11.36
2018-03-28T02:53:38.958Z,11.35
2018-03-28T02:54:19.481Z,11.21
2018-03-28T02:54:59.986Z,11.18
2018-03-28T02:55:40.508Z,11.27
2018-03-28T02:56:21.018Z,11.27
2018-03-28T02:57:01.524Z,11.29
2018-03-28T02:57:42.033Z,11.24
2018-03-28T02:58:22.559Z,11.18
2018-03-28T02:59:03.065Z,11.18
2018-03-28T02:59:43.590Z,11.33
2018-03-28T03:00:24.151Z,11.27
2018-03-28T03:01:04.673Z,11.22
2018-03-28T03:01:45.202Z,11.22
2018-03-28T03:02:25.790Z,11.15
2018-03-28T03:03:06.297Z,11.21
2018-03-28T03:03:46.826Z,11.18
2018-03-28T03:04:27.339Z,11.25
2018-03-28T03:05:07.856Z,11.37
2018-03-28T03:05:48.386Z,11.33
2018-03-28T03:06:28.915Z,11.36
2018-03-28T03:07:09.435Z,11.29
2018-03-28T03:07:49.954Z,11.35
2018-03-28T03:08:30.479Z,11.28
2018-03-28T03:09:10.990Z,11.32
2018-03-28T03:09:51.519Z,11.27
2018-03-28T03:10:32.031Z,11.28
2018-03-28T03:11:12.537Z,11.37
2018-03-28T03:11:53.047Z,11.36
2018-03-28T03:12:33.561Z,11.4
2018-03-28T03:13:14.093Z,11.36
2018-03-28T03:13:54.599Z,11.35
2018-03-28T03:14:35.115Z,11.29
2018-03-28T03:15:15.633Z,11.37
2018-03-28T03:15:56.168Z,11.4
2018-03-28T03:16:36.664Z,11.32
2018-03-28T03:17:17.187Z,11.46
2018-03-28T03:17:57.710Z,11.32
2018-03-28T03:18:38.219Z,11.36
2018-03-28T03:19:18.735Z,11.29
2018-03-28T03:19:59.262Z,11.33
2018-03-28T03:20:39.763Z,11.27
2018-03-28T03:21:20.268Z,11.14
2018-03-28T03:22:00.782Z,11.22
2018-03-28T03:22:41.288Z,11.19
2018-03-28T03:23:21.820Z,11.32
2018-03-28T03:24:02.336Z,11.19
2018-03-28T03:24:42.836Z,11.18
2018-03-28T03:25:23.350Z,11.18
2018-03-28T03:26:03.866Z,11.24
2018-03-28T03:26:44.383Z,11.28
2018-03-28T03:27:24.890Z,11.29
2018-03-28T03:28:05.414Z,11.32
2018-03-28T03:28:45.920Z,11.32
2018-03-28T03:29:26.442Z,11.33
2018-03-28T03:30:06.970Z,11.4
2018-03-28T03:30:47.486Z,11.39
2018-03-28T03:31:28.005Z,11.4
2018-03-28T03:32:08.507Z,11.44
2018-03-28T03:32:49.026Z,11.39
2018-03-28T03:33:29.544Z,11.37
2018-03-28T03:34:10.061Z,11.29
2018-03-28T03:34:50.626Z,11.17
2018-03-28T03:35:31.143Z,11.18
2018-03-28T03:36:11.665Z,11.18
2018-03-28T03:36:52.229Z,11.21
2018-03-28T03:37:32.696Z,11.15
2018-03-28T03:38:13.213Z,11.19
2018-03-28T03:38:53.725Z,11.19
2018-03-28T03:39:34.240Z,11.19
2018-03-28T03:40:14.756Z,11.18
2018-03-28T03:40:55.399Z,11.21
2018-03-28T03:41:35.898Z,11.22
2018-03-28T03:42:16.406Z,11.19
2018-03-28T03:42:56.932Z,11.25
2018-03-28T03:43:37.442Z,11.32
2018-03-28T03:44:17.957Z,11.37
2018-03-28T03:44:58.471Z,11.36
2018-03-28T03:45:38.977Z,11.37
2018-03-28T03:46:19.496Z,11.44
2018-03-28T03:47:00.035Z,11.44
2018-03-28T03:47:40.552Z,11.35
2018-03-28T03:48:21.112Z,11.47
2018-03-28T03:49:01.620Z,11.46
2018-03-28T03:49:42.218Z,11.51
2018-03-28T03:50:22.732Z,11.46
2018-03-28T03:51:03.238Z,11.51
2018-03-28T03:51:43.738Z,11.54
2018-03-28T03:52:24.271Z,11.46
2018-03-28T03:53:04.775Z,11.49
2018-03-28T03:53:45.297Z,11.57
2018-03-28T03:54:25.810Z,11.51
2018-03-28T03:55:06.313Z,11.62
2018-03-28T03:55:46.831Z,11.47
2018-03-28T03:56:27.373Z,11.49
2018-03-28T03:57:07.885Z,11.54
2018-03-28T03:57:48.397Z,11.57
2018-03-28T03:58:28.912Z,11.52
2018-03-28T03:59:09.434Z,11.62
2018-03-28T03:59:49.947Z,11.57
2018-03-28T04:00:30.464Z,11.58
2018-03-28T04:01:10.979Z,11.47
2018-03-28T04:01:51.495Z,11.43
2018-03-28T04:02:32.007Z,11.44
2018-03-28T04:03:12.527Z,11.4
2018-03-28T04:03:53.040Z,11.52
2018-03-28T04:04:33.568Z,11.47
2018-03-28T04:05:14.085Z,11.57
2018-03-28T04:05:54.602Z,11.6
2018-03-28T04:06:35.112Z,11.55
2018-03-28T04:07:15.658Z,11.54
2018-03-28T04:07:56.175Z,11.58
2018-03-28T04:08:36.684Z,11.61
2018-03-28T04:09:17.204Z,11.58
2018-03-28T04:09:57.751Z,11.57
2018-03-28T04:10:38.278Z,11.58
2018-03-28T04:11:18.799Z,11.6
2018-03-28T04:11:59.316Z,11.65
2018-03-28T04:12:39.841Z,11.61
2018-03-28T04:13:20.361Z,11.6
2018-03-28T04:14:00.867Z,11.58
2018-03-28T04:14:41.383Z,11.57
2018-03-28T04:15:21.907Z,11.47
2018-03-28T04:16:02.432Z,11.54
2018-03-28T04:16:42.951Z,11.44
2018-03-28T04:17:23.452Z,11.4
2018-03-28T04:18:03.968Z,11.42
2018-03-28T04:18:44.483Z,11.39
2018-03-28T04:19:24.995Z,11.42
2018-03-28T04:20:05.505Z,11.37
2018-03-28T04:20:46.024Z,11.46
2018-03-28T04:21:26.561Z,11.42
2018-03-28T04:22:07.052Z,11.47
2018-03-28T04:22:47.596Z,11.49
2018-03-28T04:23:28.123Z,11.43
2018-03-28T04:24:08.652Z,11.39
2018-03-28T04:24:49.160Z,11.42
2018-03-28T04:25:29.679Z,11.44
2018-03-28T04:26:10.201Z,11.46
2018-03-28T04:26:50.717Z,11.49
2018-03-28T04:27:31.234Z,11.51
2018-03-28T04:28:11.747Z,11.52
2018-03-28T04:28:52.278Z,11.51
2018-03-28T04:29:32.803Z,11.54
2018-03-28T04:30:13.332Z,11.42
2018-03-28T04:30:53.860Z,11.58
2018-03-28T04:31:34.369Z,11.6
2018-03-28T04:32:14.880Z,11.62
2018-03-28T04:32:55.435Z,11.44
2018-03-28T04:33:35.952Z,11.47
2018-03-28T04:34:16.466Z,11.54
2018-03-28T04:34:56.986Z,11.57
2018-03-28T04:35:37.495Z,11.55
2018-03-28T04:36:18.026Z,11.54
2018-03-28T04:36:58.550Z,11.58
2018-03-28T04:37:39.064Z,11.47
2018-03-28T04:38:19.598Z,11.43
2018-03-28T04:39:00.112Z,11.44
2018-03-28T04:39:40.618Z,11.43
2018-03-28T04:40:21.144Z,11.52
2018-03-28T04:41:01.667Z,11.49
2018-03-28T04:41:42.247Z,11.44
2018-03-28T04:42:22.724Z,11.4
2018-03-28T04:43:03.233Z,11.42
2018-03-28T04:43:43.803Z,11.42
2018-03-28T04:44:24.282Z,11.44
2018-03-28T04:45:04.793Z,11.58
2018-03-28T04:45:45.309Z,11.54
2018-03-28T04:46:25.828Z,11.49
2018-03-28T04:47:06.349Z,11.47
2018-03-28T04:47:46.867Z,11.54
2018-03-28T04:48:27.384Z,11.58
2018-03-28T04:49:07.907Z,11.57
2018-03-28T04:49:48.416Z,11.58
2018-03-28T04:50:28.930Z,11.61
2018-03-28T04:51:09.444Z,11.44
2018-03-28T04:51:49.969Z,11.51
2018-03-28T04:52:30.476Z,11.51
2018-03-28T04:53:11.002Z,11.6
2018-03-28T04:53:51.512Z,11.49
2018-03-28T04:54:32.048Z,11.52
2018-03-28T04:55:12.566Z,11.47
2018-03-28T04:55:53.090Z,11.47
2018-03-28T04:56:33.624Z,11.54
2018-03-28T04:57:14.153Z,11.46
2018-03-28T04:57:54.676Z,11.64
2018-03-28T04:58:35.186Z,11.72
2018-03-28T04:59:15.703Z,11.72
2018-03-28T04:59:56.215Z,11.82
2018-03-28T05:00:36.797Z,11.82
2018-03-28T05:01:17.336Z,11.8
2018-03-28T05:01:57.866Z,11.79
2018-03-28T05:02:38.380Z,11.75
2018-03-28T05:03:18.930Z,11.7
2018-03-28T05:03:59.441Z,11.72
2018-03-28T05:04:39.966Z,11.75
2018-03-28T05:05:20.476Z,11.72
2018-03-28T05:06:00.990Z,11.67
2018-03-28T05:06:41.577Z,11.65
2018-03-28T05:07:22.145Z,11.64
2018-03-28T05:08:02.590Z,11.79
2018-03-28T05:08:43.125Z,11.83
2018-03-28T05:09:23.647Z,11.75
2018-03-28T05:10:04.171Z,11.72
2018-03-28T05:10:44.672Z,11.72
2018-03-28T05:11:25.172Z,11.72
2018-03-28T05:12:05.688Z,11.72
2018-03-28T05:12:46.197Z,11.72
2018-03-28T05:13:26.715Z,11.67
2018-03-28T05:14:07.224Z,11.69
2018-03-28T05:14:47.741Z,11.72
2018-03-28T05:15:28.243Z,11.64
2018-03-28T05:16:08.752Z,11.73
2018-03-28T05:16:49.318Z,11.73
2018-03-28T05:17:29.845Z,11.7
2018-03-28T05:18:10.369Z,11.79
2018-03-28T05:18:50.886Z,11.72
2018-03-28T05:19:31.408Z,11.78
2018-03-28T05:20:11.924Z,11.76
2018-03-28T05:20:52.418Z,11.76
2018-03-28T05:21:32.944Z,11.72
2018-03-28T05:22:13.517Z,11.75
2018-03-28T05:22:54.028Z,11.76
2018-03-28T05:23:34.568Z,11.69
2018-03-28T05:25:47.889Z,11.6
2018-03-28T05:26:28.398Z,11.55
2018-03-28T05:27:08.921Z,11.64
2018-03-28T05:27:49.434Z,11.64
2018-03-28T05:28:30.025Z,11.62
2018-03-28T05:29:10.533Z,11.64
2018-03-28T05:29:51.044Z,11.73
2018-03-28T05:30:31.551Z,11.58
2018-03-28T05:31:12.046Z,11.62
2018-03-28T05:31:52.586Z,11.52
2018-03-28T05:32:33.183Z,11.54
2018-03-28T05:33:13.714Z,11.6
2018-03-28T05:33:54.234Z,11.64
2018-03-28T05:34:34.757Z,11.98
2018-03-28T05:35:15.865Z,11.98
2018-03-28T05:35:56.397Z,12.05
2018-03-28T05:36:36.916Z,12.04
2018-03-28T05:37:17.428Z,11.94
2018-03-28T05:37:57.928Z,11.99
2018-03-28T05:38:38.461Z,11.96
2018-03-28T05:39:18.963Z,12.02
2018-03-28T05:39:59.521Z,11.99
2018-03-28T05:40:39.984Z,11.85
2018-03-28T05:41:20.497Z,11.88
2018-03-28T05:42:01.002Z,11.76
2018-03-28T05:42:41.531Z,11.73
2018-03-28T05:43:22.028Z,11.73
2018-03-28T05:44:02.556Z,11.79
2018-03-28T05:44:43.086Z,11.72
2018-03-28T05:45:23.606Z,11.69
2018-03-28T05:46:04.133Z,11.69
2018-03-28T05:46:44.696Z,11.69
2018-03-28T05:47:25.385Z,11.69
2018-03-28T05:48:06.090Z,11.7
2018-03-28T05:48:46.884Z,11.76
2018-03-28T05:49:27.125Z,11.75
2018-03-28T05:50:07.691Z,11.75
2018-03-28T05:50:48.214Z,11.7
2018-03-28T05:51:28.713Z,11.79
2018-03-28T05:52:09.278Z,11.75
2018-03-28T05:52:49.764Z,11.79
2018-03-28T05:53:30.270Z,11.86
2018-03-28T05:54:10.820Z,11.83
2018-03-28T05:54:51.390Z,11.9
2018-03-28T05:55:32.393Z,11.79
2018-03-28T05:56:13.685Z,11.85
2018-03-28T05:56:54.234Z,11.7
2018-03-28T05:57:34.762Z,11.78
2018-03-28T05:58:15.261Z,12.05
2018-03-28T05:58:55.742Z,12.38
2018-03-28T05:59:36.194Z,12.23
2018-03-28T06:00:16.658Z,12.21
2018-03-28T06:00:57.227Z,12.53
2018-03-28T06:01:37.686Z,12.79
2018-03-28T06:02:18.165Z,12.97
2018-03-28T06:02:58.654Z,13.2
2018-03-28T06:03:39.206Z,13.44
2018-03-28T06:04:19.663Z,13.6
2018-03-28T06:05:00.135Z,13.57
2018-03-28T06:05:40.648Z,13.25
2018-03-28T06:06:21.110Z,13.32
2018-03-28T06:07:01.645Z,13.52
2018-03-28T06:07:42.097Z,13.55
2018-03-28T06:08:22.627Z,12.97
2018-03-28T06:09:03.151Z,12.83
2018-03-28T06:09:43.630Z,12.52
2018-03-28T06:10:24.069Z,12.39
2018-03-28T06:11:04.620Z,12.09
2018-03-28T06:11:45.094Z,12.1
2018-03-28T06:12:25.543Z,12.23
2018-03-28T06:13:06.026Z,12.23
2018-03-28T06:13:46.587Z,12.28
2018-03-28T06:14:27.093Z,12.41
2018-03-28T06:15:07.538Z,12.59
2018-03-28T06:15:48.010Z,12.71
2018-03-28T06:16:28.530Z,13.05
2018-03-28T06:17:08.988Z,13.39
2018-03-28T06:17:49.544Z,13.14
2018-03-28T06:18:30.014Z,12.71
2018-03-28T06:19:10.420Z,12.87
2018-03-28T06:19:51.020Z,13.12
2018-03-28T06:20:31.606Z,13.07
2018-03-28T06:21:12.076Z,12.83
2018-03-28T06:21:52.618Z,12.71
2018-03-28T06:22:33.120Z,12.5
2018-03-28T06:23:13.620Z,12.62
2018-03-28T06:23:54.122Z,12.64
2018-03-28T06:24:34.630Z,12.59
2018-03-28T06:25:15.149Z,12.65
2018-03-28T06:25:55.627Z,12.5
2018-03-28T06:26:36.117Z,12.6
2018-03-28T06:27:16.612Z,12.62
2018-03-28T06:27:57.132Z,12.54
2018-03-28T06:28:37.662Z,12.65
2018-03-28T06:29:18.163Z,12.59
2018-03-28T06:29:58.696Z,12.49
2018-03-28T06:30:39.258Z,12.54
2018-03-28T06:31:19.753Z,12.7
2018-03-28T06:32:00.218Z,12.65
2018-03-28T06:32:40.745Z,12.64
2018-03-28T06:33:21.263Z,12.7
2018-03-28T06:34:01.818Z,12.65
2018-03-28T06:34:42.293Z,12.53
2018-03-28T06:35:22.801Z,12.56
2018-03-28T06:36:03.334Z,12.53
2018-03-28T06:36:43.856Z,12.57
2018-03-28T06:37:24.370Z,12.65
2018-03-28T06:38:04.884Z,12.62
2018-03-28T06:38:45.396Z,12.47
2018-03-28T06:39:25.906Z,12.41
2018-03-28T06:40:06.440Z,12.46
2018-03-28T06:40:46.940Z,12.47
2018-03-28T06:41:27.437Z,12.53
2018-03-28T06:42:07.943Z,12.53
2018-03-28T06:42:48.466Z,12.62
2018-03-28T06:43:28.916Z,12.59
2018-03-28T06:44:09.401Z,12.54
2018-03-28T06:44:49.906Z,12.64
2018-03-28T06:45:30.389Z,12.64
2018-03-28T06:46:10.902Z,12.68
2018-03-28T06:46:51.416Z,13.23
2018-03-28T06:47:31.939Z,13.46
2018-03-28T06:48:12.481Z,13.52
2018-03-28T06:48:52.993Z,13.29
2018-03-28T06:49:33.531Z,13.32
2018-03-28T06:50:14.006Z,13.64
2018-03-28T06:50:54.579Z,13.84
2018-03-28T06:51:35.076Z,13.87
2018-03-28T06:52:15.585Z,13.81
2018-03-28T06:52:56.086Z,14.04
2018-03-28T06:53:36.623Z,13.85
2018-03-28T06:54:17.106Z,14.15
2018-03-28T06:54:57.593Z,14.15
2018-03-28T06:55:38.212Z,14.07
2018-03-28T06:56:18.763Z,13.91
2018-03-28T06:56:59.209Z,13.77
2018-03-28T06:57:39.740Z,13.95
2018-03-28T06:58:20.236Z,13.66
2018-03-28T06:59:00.712Z,13.59
2018-03-28T06:59:41.204Z,13.54
2018-03-28T07:00:21.711Z,13.41
2018-03-28T07:01:02.155Z,13.32
2018-03-28T07:01:42.697Z,13.39
2018-03-28T07:02:23.162Z,13.62
2018-03-28T07:03:03.642Z,13.6
2018-03-28T07:03:44.185Z,13.63
2018-03-28T07:04:24.632Z,13.55
2018-03-28T07:05:05.124Z,13.59
2018-03-28T07:05:45.623Z,13.75
2018-03-28T07:06:26.074Z,13.64
2018-03-28T07:07:06.593Z,13.89
2018-03-28T07:07:47.155Z,13.87
2018-03-28T07:08:27.685Z,13.89
2018-03-28T07:09:08.142Z,13.87
2018-03-28T07:09:48.767Z,13.77
2018-03-28T07:10:29.241Z,13.7
2018-03-28T07:11:09.729Z,13.67
2018-03-28T07:11:50.203Z,13.54
2018-03-28T07:12:30.702Z,13.57
2018-03-28T07:13:11.378Z,13.46
2018-03-28T07:13:51.867Z,13.45
2018-03-28T07:14:32.385Z,13.55
2018-03-28T07:15:12.867Z,13.59
2018-03-28T07:15:53.344Z,13.41
2018-03-28T07:16:33.867Z,13.36
2018-03-28T07:17:14.378Z,13.39
2018-03-28T07:17:54.845Z,13.3
2018-03-28T07:18:35.371Z,13.11
2018-03-28T07:19:15.854Z,13.15
2018-03-28T07:19:56.366Z,13.33
2018-03-28T07:20:36.867Z,13.42
2018-03-28T07:21:17.361Z,13.44
2018-03-28T07:21:57.817Z,13.32
2018-03-28T07:22:38.356Z,13.57
2018-03-28T07:23:18.826Z,13.81
2018-03-28T07:23:59.334Z,14.06
2018-03-28T07:24:39.886Z,13.6
2018-03-28T07:25:20.383Z,13.96
2018-03-28T07:26:00.885Z,14.06
2018-03-28T07:26:41.380Z,14.14
2018-03-28T07:27:22.039Z,14.32
2018-03-28T07:28:02.580Z,14.24
2018-03-28T07:28:43.069Z,14.27
2018-03-28T07:29:23.661Z,14.37
2018-03-28T07:30:04.180Z,14.42
2018-03-28T07:30:44.621Z,14.24
2018-03-28T07:31:25.173Z,14.15
2018-03-28T07:32:05.804Z,14.02
2018-03-28T07:32:46.335Z,13.97
2018-03-28T07:33:26.814Z,13.99
2018-03-28T07:34:07.367Z,13.82
2018-03-28T07:34:47.867Z,13.85
2018-03-28T07:35:28.367Z,13.69
2018-03-28T07:36:08.879Z,13.62
2018-03-28T07:36:49.418Z,13.66
2018-03-28T07:37:29.916Z,13.84
2018-03-28T07:38:10.392Z,13.87
2018-03-28T07:38:50.842Z,13.95
2018-03-28T07:39:31.367Z,14.02
2018-03-28T07:40:11.937Z,14.18
2018-03-28T07:40:52.412Z,14.28
2018-03-28T07:41:32.940Z,14.27
2018-03-28T07:42:13.399Z,14.24
2018-03-28T07:42:53.986Z,14.42
2018-03-28T07:43:34.507Z,14.43
2018-03-28T07:44:15.162Z,14.46
2018-03-28T07:44:55.637Z,14.47
2018-03-28T07:45:36.132Z,14.47
2018-03-28T07:46:16.614Z,14.64
2018-03-28T07:46:57.140Z,14.61
2018-03-28T07:47:37.654Z,14.62
2018-03-28T07:48:18.146Z,14.6
2018-03-28T07:48:58.650Z,14.62
2018-03-28T07:49:39.158Z,14.61
2018-03-28T07:50:19.566Z,14.78
2018-03-28T07:51:00.157Z,14.77
2018-03-28T07:51:40.668Z,14.78
2018-03-28T07:52:21.185Z,14.86
2018-03-28T07:53:01.618Z,14.88
2018-03-28T07:53:42.104Z,14.92
2018-03-28T07:54:22.580Z,15.01
2018-03-28T07:55:03.132Z,15.07
2018-03-28T07:55:43.647Z,15.03
2018-03-28T07:56:24.099Z,15.06
2018-03-28T07:57:04.735Z,15.1
2018-03-28T07:57:45.301Z,15.06
2018-03-28T07:58:25.800Z,15.06
2018-03-28T07:59:06.408Z,15.09
2018-03-28T07:59:46.918Z,14.95
2018-03-28T08:00:27.361Z,14.98
2018-03-28T08:01:07.852Z,14.96
2018-03-28T08:01:48.334Z,14.92
2018-03-28T08:02:28.833Z,14.88
2018-03-28T08:03:09.419Z,14.64
2018-03-28T08:03:49.926Z,14.61
2018-03-28T08:04:30.414Z,14.58
2018-03-28T08:05:10.911Z,14.65
2018-03-28T08:05:51.634Z,14.7
2018-03-28T08:06:32.150Z,14.81
2018-03-28T08:07:12.662Z,14.81
2018-03-28T08:07:53.169Z,14.86
2018-03-28T08:08:33.666Z,14.84
2018-03-28T08:09:14.241Z,14.91
2018-03-28T08:09:54.648Z,15.03
2018-03-28T08:10:35.230Z,15.03
2018-03-28T08:11:15.748Z,15.13
2018-03-28T08:11:56.405Z,15.36
2018-03-28T08:12:37.144Z,15.31
2018-03-28T08:13:17.607Z,15.41
2018-03-28T08:13:58.186Z,15.56
2018-03-28T08:14:39.063Z,15.51
2018-03-28T08:15:19.513Z,15.69
2018-03-28T08:16:00.047Z,15.83
2018-03-28T08:16:40.578Z,15.97
2018-03-28T08:17:21.072Z,16.05
2018-03-28T08:18:01.631Z,16.09
2018-03-28T08:18:42.127Z,16.17
2018-03-28T08:19:22.624Z,16.17
2018-03-28T08:20:03.118Z,16.17
2018-03-28T08:20:43.713Z,16.14
2018-03-28T08:21:24.272Z,16.15
2018-03-28T08:22:04.921Z,16.25
2018-03-28T08:22:45.355Z,16.11
2018-03-28T08:23:25.979Z,16.25
2018-03-28T08:24:06.448Z,16.2
2018-03-28T08:24:47.084Z,16.05
2018-03-28T08:25:27.501Z,16.08
2018-03-28T08:26:08.141Z,16.08
2018-03-28T08:26:48.501Z,16.01
2018-03-28T08:27:29.024Z,16.04
2018-03-28T08:28:09.460Z,16.12
2018-03-28T08:28:50.097Z,16.14
2018-03-28T08:29:30.666Z,16.11
2018-03-28T08:30:11.124Z,16.11
2018-03-28T08:30:51.608Z,16.23
2018-03-28T08:31:32.150Z,16.2
2018-03-28T08:32:12.636Z,16.27
2018-03-28T08:32:53.180Z,16.28
2018-03-28T08:33:33.622Z,16.25
2018-03-28T08:34:14.458Z,16.28
2018-03-28T08:34:54.932Z,16.33
2018-03-28T08:35:35.488Z,16.33
2018-03-28T08:36:16.005Z,16.23
2018-03-28T08:36:56.483Z,16.27
2018-03-28T08:37:37.033Z,16.17
2018-03-28T08:38:17.525Z,16.09
2018-03-28T08:38:58.029Z,16.08
2018-03-28T08:39:38.542Z,16.08
2018-03-28T08:40:19.127Z,16.28
2018-03-28T08:40:59.688Z,16.17
2018-03-28T08:41:40.206Z,16.27
2018-03-28T08:42:20.821Z,16.28
2018-03-28T08:43:01.734Z,16.34
2018-03-28T08:43:42.286Z,16.45
2018-03-28T08:44:22.836Z,16.45
2018-03-28T08:45:03.361Z,16.45
2018-03-28T08:45:44.161Z,16.57
2018-03-28T08:46:24.657Z,16.5